createdAt,value
2018-01-24T00:00:43.883Z,5.80
2018-01-24T00:03:11.508Z,5.70
2018-01-24T00:05:39.458Z,5.70
2018-01-24T00:08:07.038Z,5.80
2018-01-24T00:10:35.810Z,5.70
2018-01-24T00:13:03.399Z,5.70
2018-01-24T00:15:31.927Z,5.70
2018-01-24T00:18:00.025Z,5.60
2018-01-24T00:20:28.627Z,5.70
2018-01-24T00:22:56.360Z,5.70
2018-01-24T00:25:24.059Z,5.70
2018-01-24T00:27:52.426Z,5.60
2018-01-24T00:30:20.385Z,5.60
2018-01-24T00:32:48.240Z,5.60
2018-01-24T00:35:15.826Z,5.70
2018-01-24T00:37:43.409Z,5.70
2018-01-24T00:40:11.234Z,5.60
2018-01-24T00:42:39.510Z,5.60
2018-01-24T00:45:07.114Z,5.60
2018-01-24T00:47:34.695Z,5.60
2018-01-24T00:50:02.260Z,5.60
2018-01-24T00:52:29.840Z,5.60
2018-01-24T00:54:57.968Z,5.60
2018-01-24T00:57:25.809Z,5.60
2018-01-24T00:59:53.863Z,5.70
2018-01-24T01:02:22.316Z,5.70
2018-01-24T01:04:50.030Z,5.70
2018-01-24T01:07:17.612Z,5.60
2018-01-24T01:09:46.229Z,5.60
2018-01-24T01:12:14.023Z,5.60
2018-01-24T01:14:41.621Z,5.60
2018-01-24T01:17:09.325Z,5.60
2018-01-24T01:19:37.990Z,5.60
2018-01-24T01:22:05.840Z,5.60
2018-01-24T01:24:33.573Z,5.60
2018-01-24T01:27:01.437Z,5.60
2018-01-24T01:29:29.864Z,5.60
2018-01-24T01:31:58.059Z,5.60
2018-01-24T01:34:25.838Z,5.60
2018-01-24T01:36:53.533Z,5.60
2018-01-24T01:39:22.304Z,5.50
2018-01-24T01:41:50.526Z,5.50
2018-01-24T01:44:18.399Z,5.50
2018-01-24T01:46:46.784Z,5.50
2018-01-24T01:49:14.382Z,5.50
2018-01-24T01:51:42.559Z,5.60
2018-01-24T01:54:11.092Z,5.50
2018-01-24T01:56:38.983Z,5.50
2018-01-24T01:59:08.651Z,5.50
2018-01-24T02:01:37.351Z,5.50
2018-01-24T02:04:05.087Z,5.50
2018-01-24T02:06:32.707Z,5.50
2018-01-24T02:09:00.934Z,5.60
2018-01-24T02:11:28.534Z,5.50
2018-01-24T02:13:56.963Z,5.50
2018-01-24T02:16:24.602Z,5.50
2018-01-24T02:18:52.173Z,5.60
2018-01-24T02:21:20.052Z,5.50
2018-01-24T02:23:48.633Z,5.50
2018-01-24T02:26:16.205Z,5.50
2018-01-24T02:28:43.874Z,5.50
2018-01-24T02:31:11.744Z,5.50
2018-01-24T02:33:40.523Z,5.40
2018-01-24T02:36:08.414Z,5.40
2018-01-24T02:38:42.791Z,5.50
2018-01-24T02:41:10.490Z,5.50
2018-01-24T02:43:38.450Z,5.60
2018-01-24T02:46:06.679Z,5.50
2018-01-24T02:48:40.281Z,5.60
2018-01-24T02:51:07.923Z,5.60
2018-01-24T02:53:35.968Z,5.60
2018-01-24T02:56:04.751Z,5.60
2018-01-24T02:58:32.833Z,5.60
2018-01-24T03:01:00.383Z,5.60
2018-01-24T03:03:31.925Z,5.60
2018-01-24T03:05:59.861Z,5.60
2018-01-24T03:08:27.481Z,5.60
2018-01-24T03:10:57.051Z,5.70
2018-01-24T03:13:24.852Z,5.70
2018-01-24T03:15:53.218Z,5.60
2018-01-24T03:18:20.979Z,5.60
2018-01-24T03:20:48.850Z,5.60
2018-01-24T03:23:17.556Z,5.60
2018-01-24T03:25:45.187Z,5.60
2018-01-24T03:28:13.101Z,5.60
2018-01-24T03:30:40.747Z,5.60
2018-01-24T03:33:09.956Z,5.60
2018-01-24T03:35:38.099Z,5.60
2018-01-24T03:38:05.958Z,5.60
2018-01-24T03:40:33.541Z,5.60
2018-01-24T03:43:02.200Z,5.60
2018-01-24T03:45:30.053Z,5.60
2018-01-24T03:47:57.793Z,5.60
2018-01-24T03:50:26.457Z,5.60
2018-01-24T03:52:54.205Z,5.60
2018-01-24T03:55:23.598Z,5.60
2018-01-24T03:57:51.875Z,5.60
2018-01-24T04:00:19.961Z,5.50
2018-01-24T04:02:47.768Z,5.50
2018-01-24T04:05:15.584Z,5.50
2018-01-24T04:07:43.396Z,5.50
2018-01-24T04:10:11.762Z,5.60
2018-01-24T04:12:39.571Z,5.50
2018-01-24T04:15:08.175Z,5.50
2018-01-24T04:17:35.854Z,5.60
2018-01-24T04:20:03.457Z,5.50
2018-01-24T04:22:31.089Z,5.60
2018-01-24T04:24:59.040Z,5.50
2018-01-24T04:27:26.683Z,5.50
2018-01-24T04:29:54.272Z,5.50
2018-01-24T04:32:21.892Z,5.50
2018-01-24T04:34:49.852Z,5.50
2018-01-24T04:37:17.581Z,5.50
2018-01-24T04:39:45.805Z,5.50
2018-01-24T04:42:13.575Z,5.50
2018-01-24T04:44:41.373Z,5.50
2018-01-24T04:47:09.231Z,5.50
2018-01-24T04:49:37.098Z,5.50
2018-01-24T04:52:04.977Z,5.50
2018-01-24T04:54:33.190Z,5.50
2018-01-24T04:57:01.805Z,5.50
2018-01-24T04:59:29.399Z,5.60
2018-01-24T05:01:57.454Z,5.60
2018-01-24T05:04:25.595Z,5.60
2018-01-24T05:06:53.539Z,5.60
2018-01-24T05:09:21.426Z,5.60
2018-01-24T05:11:49.042Z,5.60
2018-01-24T05:14:17.451Z,5.60
2018-01-24T05:16:46.101Z,5.60
2018-01-24T05:19:14.455Z,5.60
2018-01-24T05:21:42.143Z,5.60
2018-01-24T05:24:12.576Z,5.70
2018-01-24T05:26:40.443Z,5.70
2018-01-24T05:29:08.319Z,5.70
2018-01-24T05:31:36.452Z,5.60
2018-01-24T05:34:04.938Z,5.60
2018-01-24T05:36:32.546Z,5.60
2018-01-24T05:39:00.889Z,5.70
2018-01-24T05:41:29.807Z,5.70
2018-01-24T05:43:58.364Z,5.80
2018-01-24T05:46:26.242Z,5.80
2018-01-24T05:48:54.135Z,5.80
2018-01-24T05:51:22.913Z,5.80
2018-01-24T05:53:50.864Z,5.80
2018-01-24T05:56:18.489Z,5.80
2018-01-24T05:58:46.187Z,5.80
2018-01-24T06:01:14.300Z,5.90
2018-01-24T06:03:43.180Z,5.90
2018-01-24T06:06:10.862Z,5.90
2018-01-24T06:08:38.565Z,5.80
2018-01-24T06:11:07.029Z,5.90
2018-01-24T06:13:35.970Z,5.80
2018-01-24T06:16:03.891Z,5.80
2018-01-24T06:18:31.802Z,5.80
2018-01-24T06:20:59.590Z,5.90
2018-01-24T06:23:28.169Z,5.90
2018-01-24T06:25:55.845Z,5.80
2018-01-24T06:28:24.358Z,5.90
2018-01-24T06:30:52.811Z,5.90
2018-01-24T06:33:22.112Z,5.90
2018-01-24T06:35:51.576Z,5.90
2018-01-24T06:38:19.254Z,5.90
2018-01-24T06:40:47.456Z,5.90
2018-01-24T06:43:15.419Z,6.00
2018-01-24T06:45:44.739Z,5.90
2018-01-24T06:48:12.362Z,5.90
2018-01-24T06:50:40.638Z,5.90
2018-01-24T06:53:08.372Z,6.00
2018-01-24T06:55:36.261Z,6.00
2018-01-24T06:58:04.178Z,6.00
2018-01-24T07:00:32.913Z,6.00
2018-01-24T07:03:00.530Z,6.00
2018-01-24T07:05:29.187Z,6.20
2018-01-24T07:07:57.743Z,6.20
2018-01-24T07:10:25.571Z,6.10
2018-01-24T07:13:05.255Z,6.10
2018-01-24T07:15:33.519Z,6.10
2018-01-24T07:18:02.623Z,6.20
2018-01-24T07:20:30.575Z,6.10
2018-01-24T07:22:58.440Z,6.10
2018-01-24T07:25:26.131Z,6.10
2018-01-24T07:27:58.534Z,6.20
2018-01-24T07:30:27.975Z,6.10
2018-01-24T07:33:08.844Z,6.20
2018-01-24T07:35:41.485Z,6.20
2018-01-24T07:38:18.885Z,6.20
2018-01-24T07:40:48.740Z,6.10
2018-01-24T07:43:16.765Z,6.10
2018-01-24T07:45:44.433Z,6.20
2018-01-24T07:48:12.820Z,6.20
2018-01-24T07:50:40.450Z,6.20
2018-01-24T07:53:08.000Z,6.20
2018-01-24T07:55:35.594Z,6.20
2018-01-24T07:58:03.186Z,6.30
2018-01-24T08:00:32.044Z,6.40
2018-01-24T08:03:00.661Z,6.40
2018-01-24T08:05:28.349Z,6.40
2018-01-24T08:07:57.609Z,6.40
2018-01-24T08:10:26.795Z,6.50
2018-01-24T08:12:54.562Z,6.50
2018-01-24T08:15:22.195Z,6.50
2018-01-24T08:17:50.051Z,6.50
2018-01-24T08:20:17.629Z,6.60
2018-01-24T08:22:45.187Z,6.60
2018-01-24T08:25:12.926Z,6.70
2018-01-24T08:27:40.539Z,6.70
2018-01-24T08:30:09.034Z,6.70
2018-01-24T08:32:40.162Z,6.80
2018-01-24T08:35:08.554Z,6.80
2018-01-24T08:37:41.559Z,6.90
2018-01-24T08:40:11.055Z,7.00
2018-01-24T08:42:39.452Z,7.00
2018-01-24T08:45:07.439Z,7.00
2018-01-24T08:47:35.212Z,7.10
2018-01-24T08:50:03.371Z,7.30
2018-01-24T08:52:30.968Z,7.40
2018-01-24T08:54:58.530Z,7.60
2018-01-24T08:57:26.902Z,7.80
2018-01-24T08:59:54.579Z,8.00
2018-01-24T09:02:22.420Z,8.00
2018-01-24T09:04:50.036Z,8.00
2018-01-24T09:07:17.653Z,8.00
2018-01-24T09:09:45.250Z,8.00
2018-01-24T09:12:13.592Z,7.90
2018-01-24T09:14:41.240Z,7.90
2018-01-24T09:17:08.889Z,7.90
2018-01-24T09:19:37.542Z,7.90
2018-01-24T09:22:05.996Z,8.10
2018-01-24T09:24:33.562Z,8.10
2018-01-24T09:27:01.326Z,8.20
2018-01-24T09:29:29.597Z,8.40
2018-01-24T09:31:58.583Z,8.60
2018-01-24T09:34:26.210Z,8.80
2018-01-24T09:36:53.762Z,8.80
2018-01-24T09:39:21.395Z,8.90
2018-01-24T09:41:50.269Z,9.10
2018-01-24T09:44:17.904Z,9.10
2018-01-24T09:46:46.372Z,9.10
2018-01-24T09:49:13.941Z,9.20
2018-01-24T09:51:41.489Z,9.30
2018-01-24T09:54:09.130Z,9.20
2018-01-24T09:56:38.256Z,9.20
2018-01-24T09:59:05.815Z,9.20
2018-01-24T10:01:33.410Z,9.30
2018-01-24T10:04:01.030Z,9.40
2018-01-24T10:06:28.669Z,9.40
2018-01-24T10:08:57.039Z,9.60
2018-01-24T10:11:24.611Z,9.50
2018-01-24T10:13:53.914Z,9.60
2018-01-24T10:16:22.388Z,9.60
2018-01-24T10:18:50.956Z,9.80
2018-01-24T10:21:18.779Z,9.80
2018-01-24T10:23:46.410Z,9.90
2018-01-24T10:26:14.814Z,10.00
2018-01-24T10:28:43.267Z,10.00
2018-01-24T10:31:11.700Z,10.10
2018-01-24T10:33:39.621Z,10.10
2018-01-24T10:36:09.068Z,10.20
2018-01-24T10:38:36.682Z,10.20
2018-01-24T10:41:05.046Z,10.10
2018-01-24T10:43:33.069Z,10.10
2018-01-24T10:46:00.858Z,10.10
2018-01-24T10:48:28.438Z,10.20
2018-01-24T10:50:56.026Z,10.20
2018-01-24T10:53:24.004Z,10.30
2018-01-24T10:55:51.606Z,10.50
2018-01-24T10:58:19.166Z,10.60
2018-01-24T11:00:46.775Z,10.90
2018-01-24T11:03:16.227Z,11.10
2018-01-24T11:05:43.805Z,11.10
2018-01-24T11:08:11.902Z,11.00
2018-01-24T11:10:39.684Z,11.10
2018-01-24T11:13:08.258Z,11.30
2018-01-24T11:15:36.798Z,11.60
2018-01-24T11:18:05.148Z,11.70
2018-01-24T11:20:32.768Z,11.70
2018-01-24T11:23:01.393Z,11.70
2018-01-24T11:25:29.285Z,11.70
2018-01-24T11:27:56.856Z,11.70
2018-01-24T11:30:24.588Z,11.80
2018-01-24T11:32:52.199Z,12.00
2018-01-24T11:35:20.074Z,12.00
2018-01-24T11:37:47.774Z,12.20
2018-01-24T11:40:15.345Z,12.30
2018-01-24T11:42:42.917Z,12.60
2018-01-24T11:45:10.688Z,12.70
2018-01-24T11:47:38.779Z,12.50
2018-01-24T11:50:06.487Z,12.50
2018-01-24T11:52:34.155Z,12.50
2018-01-24T11:55:01.782Z,12.50
2018-01-24T11:57:29.406Z,12.80
2018-01-24T11:59:57.104Z,12.80
2018-01-24T12:02:24.740Z,13.00
2018-01-24T12:04:52.602Z,13.10
2018-01-24T12:07:20.418Z,13.40
2018-01-24T12:09:48.092Z,13.60
2018-01-24T12:12:16.445Z,13.40
2018-01-24T12:14:44.516Z,13.40
2018-01-24T12:17:12.869Z,13.50
2018-01-24T12:19:40.754Z,13.40
2018-01-24T12:22:08.490Z,13.50
2018-01-24T12:24:36.335Z,13.60
2018-01-24T12:27:04.996Z,13.50
2018-01-24T12:29:32.662Z,13.40
2018-01-24T12:32:01.139Z,13.30
2018-01-24T12:34:28.718Z,13.30
2018-01-24T12:36:57.622Z,13.40
2018-01-24T12:39:25.790Z,13.40
2018-01-24T12:41:53.411Z,13.50
2018-01-24T12:44:21.070Z,13.70
2018-01-24T12:46:48.684Z,13.70
2018-01-24T12:49:17.439Z,13.60
2018-01-24T12:51:46.021Z,13.20
2018-01-24T12:54:13.671Z,13.10
2018-01-24T12:56:41.277Z,13.20
2018-01-24T12:59:10.618Z,13.30
2018-01-24T13:01:38.406Z,13.20
2018-01-24T13:04:06.157Z,13.40
2018-01-24T13:06:33.789Z,13.10
2018-01-24T13:09:01.527Z,13.10
2018-01-24T13:11:29.922Z,13.10
2018-01-24T13:13:57.832Z,13.10
2018-01-24T13:16:25.503Z,13.00
2018-01-24T13:18:53.085Z,13.00
2018-01-24T13:21:21.627Z,13.00
2018-01-24T13:23:49.242Z,13.00
2018-01-24T13:26:17.779Z,13.20
2018-01-24T13:28:45.531Z,13.20
2018-01-24T13:31:13.285Z,13.30
2018-01-24T13:33:41.207Z,13.20
2018-01-24T13:36:09.629Z,12.80
2018-01-24T13:38:37.557Z,12.90
2018-01-24T13:41:05.176Z,12.80
2018-01-24T13:43:32.815Z,12.80
2018-01-24T13:46:00.501Z,12.80
2018-01-24T13:48:28.550Z,12.80
2018-01-24T13:50:57.293Z,12.80
2018-01-24T13:53:24.886Z,12.80
2018-01-24T13:55:52.443Z,12.80
2018-01-24T13:58:20.984Z,12.70
2018-01-24T14:00:48.731Z,12.70
2018-01-24T14:03:17.439Z,12.60
2018-01-24T14:05:46.015Z,12.60
2018-01-24T14:08:13.678Z,12.60
2018-01-24T14:10:41.443Z,12.60
2018-01-24T14:13:09.064Z,12.50
2018-01-24T14:15:36.902Z,12.50
2018-01-24T14:18:04.701Z,12.50
2018-01-24T14:20:33.136Z,12.50
2018-01-24T14:23:00.749Z,12.50
2018-01-24T14:25:28.428Z,12.40
2018-01-24T14:27:56.301Z,12.40
2018-01-24T14:30:23.975Z,12.30
2018-01-24T14:32:51.561Z,12.30
2018-01-24T14:35:19.198Z,12.30
2018-01-24T14:37:46.790Z,12.30
2018-01-24T14:40:14.628Z,12.30
2018-01-24T14:42:42.292Z,12.30
2018-01-24T14:45:09.991Z,12.30
2018-01-24T14:47:38.478Z,12.20
2018-01-24T14:50:06.838Z,12.20
2018-01-24T14:52:34.664Z,12.20
2018-01-24T14:55:02.245Z,12.20
2018-01-24T14:57:29.854Z,12.10
2018-01-24T15:02:27.309Z,12.00
2018-01-24T15:04:56.006Z,11.90
2018-01-24T15:07:24.420Z,11.80
2018-01-24T15:09:51.985Z,11.80
2018-01-24T15:12:19.695Z,11.80
2018-01-24T15:14:47.325Z,11.80
2018-01-24T15:17:16.084Z,11.70
2018-01-24T15:19:43.864Z,11.70
2018-01-24T15:22:11.436Z,11.60
2018-01-24T15:24:39.535Z,11.50
2018-01-24T15:27:09.060Z,11.40
2018-01-24T15:29:37.729Z,11.30
2018-01-24T15:32:05.439Z,11.30
2018-01-24T15:34:33.060Z,11.20
2018-01-24T15:37:00.743Z,11.10
2018-01-24T15:39:28.417Z,11.00
2018-01-24T15:41:56.724Z,10.90
2018-01-24T15:44:24.434Z,10.90
2018-01-24T15:46:52.796Z,10.70
2018-01-24T15:49:21.247Z,10.60
2018-01-24T15:51:48.964Z,10.60
2018-01-24T15:54:17.415Z,10.60
2018-01-24T15:56:44.993Z,10.50
2018-01-24T15:59:12.622Z,10.50
2018-01-24T16:01:40.240Z,10.50
2018-01-24T16:04:08.016Z,10.40
2018-01-24T16:06:35.739Z,10.40
2018-01-24T16:09:03.550Z,10.40
2018-01-24T16:11:31.225Z,10.30
2018-01-24T16:13:58.867Z,10.20
2018-01-24T16:16:27.259Z,10.10
2018-01-24T16:18:54.872Z,10.00
2018-01-24T16:21:23.454Z,10.00
2018-01-24T16:23:51.082Z,10.00
2018-01-24T16:26:18.750Z,10.00
2018-01-24T16:28:46.470Z,9.90
2018-01-24T16:31:14.233Z,9.90
2018-01-24T16:33:42.617Z,9.80
2018-01-24T16:36:10.350Z,9.80
2018-01-24T16:38:38.483Z,9.80
2018-01-24T16:41:06.769Z,9.70
2018-01-24T16:43:35.230Z,9.60
2018-01-24T16:46:03.294Z,9.60
2018-01-24T16:48:30.961Z,9.60
2018-01-24T16:50:58.919Z,9.50
2018-01-24T16:53:27.385Z,9.40
2018-01-24T16:55:55.278Z,9.40
2018-01-24T16:58:23.025Z,9.40
2018-01-24T17:00:51.676Z,9.40
2018-01-24T17:03:19.571Z,9.40
2018-01-24T17:05:48.088Z,9.30
2018-01-24T17:08:15.853Z,9.30
2018-01-24T17:10:44.458Z,9.30
2018-01-24T17:13:12.060Z,9.20
2018-01-24T17:15:39.669Z,9.20
2018-01-24T17:18:07.286Z,9.10
2018-01-24T17:20:36.355Z,9.10
2018-01-24T17:23:04.260Z,9.10
2018-01-24T17:25:33.157Z,9.10
2018-01-24T17:28:02.992Z,9.10
2018-01-24T17:30:30.688Z,9.10
2018-01-24T17:32:59.285Z,9.10
2018-01-24T17:35:27.207Z,9.10
2018-01-24T17:37:56.338Z,9.10
2018-01-24T17:40:24.079Z,9.10
2018-01-24T17:42:51.650Z,9.10
2018-01-24T17:45:19.740Z,9.00
2018-01-24T17:47:47.775Z,8.90
2018-01-24T17:50:16.064Z,8.90
2018-01-24T17:52:44.831Z,8.90
2018-01-24T17:55:13.223Z,9.00
2018-01-24T17:57:40.779Z,8.90
2018-01-24T18:00:10.337Z,8.90
2018-01-24T18:02:38.232Z,8.90
2018-01-24T18:05:05.917Z,8.90
2018-01-24T18:07:33.492Z,8.80
2018-01-24T18:10:01.399Z,8.70
2018-01-24T18:12:29.149Z,8.80
2018-01-24T18:14:56.931Z,8.80
2018-01-24T18:17:24.564Z,8.70
2018-01-24T18:19:52.290Z,8.80
2018-01-24T18:22:20.896Z,8.80
2018-01-24T18:24:48.538Z,8.80
2018-01-24T18:27:17.965Z,8.80
2018-01-24T18:29:45.524Z,8.70
2018-01-24T18:32:13.183Z,8.80
2018-01-24T18:34:41.067Z,8.80
2018-01-24T18:37:09.454Z,8.70
2018-01-24T18:39:37.128Z,8.70
2018-01-24T18:42:04.908Z,8.70
2018-01-24T18:44:32.744Z,8.70
2018-01-24T18:47:00.579Z,8.70
2018-01-24T18:49:28.191Z,8.70
2018-01-24T18:51:56.381Z,8.60
2018-01-24T18:54:24.142Z,8.70
2018-01-24T18:56:52.053Z,8.60
2018-01-24T18:59:19.778Z,8.70
2018-01-24T19:01:47.425Z,8.60
2018-01-24T19:04:15.084Z,8.70
2018-01-24T19:06:42.762Z,8.70
2018-01-24T19:09:11.174Z,8.70
2018-01-24T19:11:39.760Z,8.70
2018-01-24T19:14:08.257Z,8.70
2018-01-24T19:16:37.603Z,8.70
2018-01-24T19:19:05.168Z,8.70
2018-01-24T19:21:32.738Z,8.70
2018-01-24T19:24:00.588Z,8.70
2018-01-24T19:26:30.556Z,8.70
2018-01-24T19:28:59.115Z,8.70
2018-01-24T19:31:26.749Z,8.70
2018-01-24T19:33:54.428Z,8.70
2018-01-24T19:36:22.114Z,8.60
2018-01-24T19:38:50.341Z,8.60
2018-01-24T19:41:17.964Z,8.60
2018-01-24T19:43:46.472Z,8.60
2018-01-24T19:46:15.417Z,8.60
2018-01-24T19:48:44.270Z,8.60
2018-01-24T19:51:11.929Z,8.60
2018-01-24T19:53:40.613Z,8.50
2018-01-24T19:56:08.241Z,8.50
2018-01-24T19:58:36.634Z,8.50
2018-01-24T20:01:04.311Z,8.50
2018-01-24T20:03:32.227Z,8.50
2018-01-24T20:06:00.004Z,8.50
2018-01-24T20:08:28.489Z,8.50
2018-01-24T20:10:56.735Z,8.40
2018-01-24T20:13:24.516Z,8.40
2018-01-24T20:15:52.410Z,8.40
2018-01-24T20:18:20.077Z,8.40
2018-01-24T20:20:48.647Z,8.30
2018-01-24T20:23:16.891Z,8.30
2018-01-24T20:25:44.683Z,8.30
2018-01-24T20:28:13.249Z,8.20
2018-01-24T20:30:41.051Z,8.20
2018-01-24T20:33:09.601Z,8.10
2018-01-24T20:35:37.891Z,8.10
2018-01-24T20:38:06.312Z,8.10
2018-01-24T20:40:34.032Z,8.10
2018-01-24T20:43:02.631Z,8.10
2018-01-24T20:45:31.232Z,8.00
2018-01-24T20:47:59.597Z,8.00
2018-01-24T20:50:28.357Z,8.00
2018-01-24T20:52:56.016Z,8.00
2018-01-24T20:55:25.512Z,7.90
2018-01-24T20:57:53.206Z,7.90
2018-01-24T21:00:21.682Z,7.90
2018-01-24T21:02:49.314Z,7.80
2018-01-24T21:05:17.501Z,7.80
2018-01-24T21:07:47.152Z,7.80
2018-01-24T21:10:15.618Z,7.80
2018-01-24T21:12:44.001Z,7.70
2018-01-24T21:15:11.931Z,7.70
2018-01-24T21:17:39.788Z,7.60
2018-01-24T21:20:10.120Z,7.60
2018-01-24T21:22:37.800Z,7.60
2018-01-24T21:25:05.396Z,7.60
2018-01-24T21:27:33.839Z,7.60
2018-01-24T21:30:13.140Z,7.60
2018-01-24T21:32:47.536Z,7.70
2018-01-24T21:35:21.884Z,7.60
2018-01-24T21:37:49.613Z,7.60
2018-01-24T21:40:19.775Z,7.60
2018-01-24T21:42:47.590Z,7.60
2018-01-24T21:45:15.336Z,7.60
2018-01-24T21:47:43.776Z,7.60
2018-01-24T21:50:12.313Z,7.60
2018-01-24T21:52:39.967Z,7.60
2018-01-24T21:55:07.720Z,7.60
2018-01-24T21:57:36.499Z,7.70
2018-01-24T22:00:04.305Z,7.90
2018-01-24T22:02:33.624Z,7.90
2018-01-24T22:05:02.068Z,7.90
2018-01-24T22:07:29.661Z,7.80
2018-01-24T22:09:57.279Z,7.90
2018-01-24T22:12:24.996Z,7.90
2018-01-24T22:14:52.772Z,7.90
2018-01-24T22:17:20.409Z,7.90
2018-01-24T22:19:48.953Z,8.00
2018-01-24T22:22:16.537Z,8.00
2018-01-24T22:24:44.110Z,8.00
2018-01-24T22:27:11.707Z,8.00
2018-01-24T22:29:39.463Z,8.00
2018-01-24T22:32:07.073Z,8.00
2018-01-24T22:34:34.738Z,8.10
2018-01-24T22:37:02.312Z,8.10
2018-01-24T22:39:30.020Z,8.10
2018-01-24T22:41:58.388Z,8.10
2018-01-24T22:44:25.972Z,8.00
2018-01-24T22:46:53.735Z,8.10
2018-01-24T22:49:21.428Z,8.00
2018-01-24T22:51:49.123Z,8.10
2018-01-24T22:54:17.546Z,7.90
2018-01-24T22:56:45.141Z,7.90
2018-01-24T22:59:13.514Z,7.90
2018-01-24T23:01:41.165Z,7.90
2018-01-24T23:04:09.198Z,7.90
2018-01-24T23:06:36.825Z,7.90
2018-01-24T23:09:04.483Z,7.80
2018-01-24T23:11:32.101Z,7.80
2018-01-24T23:13:59.762Z,7.80
2018-01-24T23:16:27.418Z,7.80
2018-01-24T23:18:55.169Z,7.80
2018-01-24T23:21:22.808Z,7.80
2018-01-24T23:23:51.167Z,7.80
2018-01-24T23:26:19.990Z,7.80
2018-01-24T23:28:49.278Z,7.70
2018-01-24T23:31:16.909Z,7.70
2018-01-24T23:33:44.575Z,7.60
2018-01-24T23:36:12.245Z,7.60
2018-01-24T23:38:40.635Z,7.60
2018-01-24T23:41:09.133Z,7.60
2018-01-24T23:43:37.568Z,7.60
2018-01-24T23:46:05.270Z,7.60
2018-01-24T23:48:32.900Z,7.60
2018-01-24T23:51:00.583Z,7.60
2018-01-24T23:53:30.069Z,7.60
2018-01-24T23:55:58.187Z,7.60
2018-01-24T23:58:25.793Z,7.60
